createdAt,value
2022-11-19T00:01:28.368Z,0.71
2022-11-19T00:03:55.622Z,0.69
2022-11-19T00:06:25.974Z,0.71
2022-11-19T00:08:53.230Z,0.69
2022-11-19T00:11:44.678Z,0.68
2022-11-19T00:14:14.211Z,0.64
2022-11-19T00:16:42.322Z,0.66
2022-11-19T00:19:11.030Z,0.66
2022-11-19T00:21:37.919Z,0.63
2022-11-19T00:24:05.136Z,0.65
2022-11-19T00:26:32.019Z,0.63
2022-11-19T00:28:58.940Z,0.61
2022-11-19T00:31:25.878Z,0.60
2022-11-19T00:33:54.541Z,0.59
2022-11-19T00:36:22.294Z,0.59
2022-11-19T00:38:49.184Z,0.58
2022-11-19T00:41:16.066Z,0.58
2022-11-19T00:43:49.884Z,0.58
2022-11-19T00:46:20.323Z,0.53
2022-11-19T00:48:49.226Z,0.58
2022-11-19T00:51:18.031Z,0.52
2022-11-19T00:53:45.284Z,0.53
2022-11-19T00:56:15.492Z,0.56
2022-11-19T00:58:42.639Z,0.50
2022-11-19T01:01:10.863Z,0.55
2022-11-19T01:03:39.063Z,0.54
2022-11-19T01:06:08.072Z,0.52
2022-11-19T01:08:35.579Z,0.49
2022-11-19T01:11:30.711Z,0.48
2022-11-19T01:13:59.606Z,0.46
2022-11-19T01:16:33.775Z,0.46
2022-11-19T01:19:01.435Z,0.44
2022-11-19T01:21:32.128Z,0.42
2022-11-19T01:23:59.752Z,0.41
2022-11-19T01:26:27.893Z,0.41
2022-11-19T01:28:55.762Z,0.40
2022-11-19T01:31:29.019Z,0.40
2022-11-19T01:33:56.331Z,0.39
2022-11-19T01:36:27.388Z,0.39
2022-11-19T01:38:54.646Z,0.40
2022-11-19T01:41:28.344Z,0.40
2022-11-19T01:43:59.290Z,0.40
2022-11-19T01:46:33.210Z,0.40
2022-11-19T01:49:09.156Z,0.40
2022-11-19T01:51:57.689Z,0.40
2022-11-19T01:54:30.423Z,0.38
2022-11-19T01:57:03.086Z,0.39
2022-11-19T01:59:31.329Z,0.38
2022-11-19T02:01:58.366Z,0.34
2022-11-19T02:04:27.026Z,0.42
2022-11-19T02:06:55.192Z,0.41
2022-11-19T02:09:22.447Z,0.42
2022-11-19T02:12:05.913Z,0.44
2022-11-19T02:15:00.445Z,0.43
2022-11-19T02:18:07.295Z,0.45
2022-11-19T02:21:19.311Z,0.47
2022-11-19T02:24:31.676Z,0.49
2022-11-19T02:27:56.971Z,0.54
2022-11-19T02:30:24.026Z,0.60
2022-11-19T02:33:11.407Z,0.66
2022-11-19T02:35:52.098Z,0.73
2022-11-19T02:38:41.398Z,0.79
2022-11-19T02:41:34.185Z,0.85
2022-11-19T02:44:34.003Z,0.93
2022-11-19T02:47:05.789Z,0.99
2022-11-19T02:49:36.970Z,1.07
2022-11-19T02:52:04.476Z,1.11
2022-11-19T02:54:31.370Z,1.17
2022-11-19T02:57:02.742Z,1.22
2022-11-19T02:59:59.673Z,1.26
2022-11-19T03:03:03.271Z,1.28
2022-11-19T03:05:33.868Z,1.31
2022-11-19T03:08:01.279Z,1.32
2022-11-19T03:10:44.430Z,1.36
2022-11-19T03:13:42.911Z,1.40
2022-11-19T03:16:43.217Z,1.42
2022-11-19T03:19:35.393Z,1.46
2022-11-19T03:22:25.070Z,1.48
2022-11-19T03:25:16.822Z,1.49
2022-11-19T03:27:50.209Z,1.49
2022-11-19T03:30:18.940Z,1.49
2022-11-19T03:32:59.193Z,1.49
2022-11-19T03:35:36.563Z,1.47
2022-11-19T03:38:08.218Z,1.52
2022-11-19T03:40:35.601Z,1.53
2022-11-19T03:43:05.990Z,1.47
2022-11-19T03:45:40.098Z,1.45
2022-11-19T03:48:07.714Z,1.54
2022-11-19T03:51:12.357Z,1.54
2022-11-19T03:53:39.599Z,1.56
2022-11-19T03:56:11.769Z,1.52
2022-11-19T03:58:44.680Z,1.58
2022-11-19T04:01:12.158Z,1.61
2022-11-19T04:03:39.251Z,1.61
2022-11-19T04:06:07.008Z,1.62
2022-11-19T04:08:34.047Z,1.64
2022-11-19T04:13:26.783Z,1.62
2022-11-19T04:15:53.662Z,1.71
2022-11-19T04:18:20.562Z,1.78
2022-11-19T04:20:47.429Z,1.81
2022-11-19T04:23:14.315Z,1.83
2022-11-19T04:25:47.078Z,1.93
2022-11-19T04:28:13.962Z,1.99
2022-11-19T04:30:40.823Z,2.02
2022-11-19T04:33:07.949Z,2.07
2022-11-19T04:35:34.819Z,2.12
2022-11-19T04:38:01.702Z,2.16
2022-11-19T04:40:28.571Z,2.24
2022-11-19T04:42:55.447Z,2.30
2022-11-19T04:45:22.321Z,2.35
2022-11-19T04:47:49.203Z,2.41
2022-11-19T04:50:16.118Z,2.46
2022-11-19T04:52:42.996Z,2.50
2022-11-19T04:55:10.827Z,2.55
2022-11-19T04:57:37.711Z,2.59
2022-11-19T05:00:05.892Z,2.65
2022-11-19T05:02:33.203Z,2.70
2022-11-19T05:05:00.105Z,2.77
2022-11-19T05:07:27.054Z,2.81
2022-11-19T05:09:53.961Z,2.86
2022-11-19T05:12:20.825Z,2.93
2022-11-19T05:14:47.750Z,2.99
2022-11-19T05:17:14.643Z,3.05
2022-11-19T05:19:41.514Z,3.09
2022-11-19T05:22:08.373Z,3.14
2022-11-19T05:24:35.255Z,3.17
2022-11-19T05:27:02.357Z,3.20
2022-11-19T05:29:29.263Z,3.23
2022-11-19T05:31:56.142Z,3.27
2022-11-19T05:34:23.138Z,3.28
2022-11-19T05:36:49.995Z,3.39
2022-11-19T05:39:21.860Z,3.38
2022-11-19T05:41:49.545Z,3.46
2022-11-19T05:44:16.576Z,3.47
2022-11-19T05:46:43.440Z,3.42
2022-11-19T05:49:10.338Z,3.57
2022-11-19T05:51:37.379Z,3.61
2022-11-19T05:54:04.308Z,3.65
2022-11-19T05:56:31.237Z,3.68
2022-11-19T05:58:58.119Z,3.73
2022-11-19T06:01:29.811Z,3.78
2022-11-19T06:03:56.917Z,3.80
2022-11-19T06:06:24.271Z,3.83
2022-11-19T06:08:51.210Z,3.86
2022-11-19T06:11:41.394Z,3.88
2022-11-19T06:14:08.292Z,3.93
2022-11-19T06:16:35.158Z,3.96
2022-11-19T06:19:02.056Z,3.96
2022-11-19T06:21:28.938Z,4.01
2022-11-19T06:23:55.838Z,4.02
2022-11-19T06:26:24.651Z,4.04
2022-11-19T06:28:52.292Z,4.07
2022-11-19T06:31:19.879Z,4.06
2022-11-19T06:33:47.114Z,4.12
2022-11-19T06:36:14.414Z,4.16
2022-11-19T06:38:41.986Z,4.17
2022-11-19T06:41:08.887Z,4.21
2022-11-19T06:43:35.766Z,4.23
2022-11-19T06:46:02.641Z,4.27
2022-11-19T06:48:29.585Z,4.27
2022-11-19T06:50:56.760Z,4.29
2022-11-19T06:53:23.683Z,4.31
2022-11-19T06:56:00.675Z,4.32
2022-11-19T06:58:28.779Z,4.31
2022-11-19T07:00:56.068Z,4.31
2022-11-19T07:03:23.784Z,4.32
2022-11-19T07:05:56.720Z,4.26
2022-11-19T07:08:24.356Z,4.29
2022-11-19T07:10:51.441Z,4.31
2022-11-19T07:13:18.329Z,4.32
2022-11-19T07:15:45.192Z,4.31
2022-11-19T07:18:12.146Z,4.33
2022-11-19T07:20:39.019Z,4.36
2022-11-19T07:23:10.656Z,4.36
2022-11-19T07:25:38.160Z,4.40
2022-11-19T07:28:05.149Z,4.41
2022-11-19T07:30:32.075Z,4.43
2022-11-19T07:32:59.607Z,4.41
2022-11-19T07:35:26.530Z,4.47
2022-11-19T07:37:53.387Z,4.48
2022-11-19T07:40:20.285Z,4.49
2022-11-19T07:42:50.237Z,4.53
2022-11-19T07:45:19.425Z,4.53
2022-11-19T07:47:46.311Z,4.60
2022-11-19T07:50:13.572Z,4.64
2022-11-19T07:52:40.481Z,4.70
2022-11-19T07:55:07.848Z,4.73
2022-11-19T07:57:35.183Z,4.74
2022-11-19T08:00:03.426Z,4.84
2022-11-19T08:02:39.363Z,4.90
2022-11-19T08:05:06.302Z,4.92
2022-11-19T08:07:33.214Z,4.91
2022-11-19T08:10:00.140Z,5.03
2022-11-19T08:12:27.013Z,5.08
2022-11-19T08:14:53.893Z,5.12
2022-11-19T08:17:39.358Z,5.17
2022-11-19T08:20:07.182Z,5.20
2022-11-19T08:22:35.819Z,5.25
2022-11-19T08:25:04.134Z,5.28
2022-11-19T08:27:30.991Z,5.34
2022-11-19T08:29:58.064Z,5.23
2022-11-19T08:32:24.948Z,5.40
2022-11-19T08:34:51.841Z,5.37
2022-11-19T08:37:18.721Z,5.47
2022-11-19T08:39:45.622Z,5.53
2022-11-19T08:42:30.832Z,5.56
2022-11-19T08:44:58.569Z,5.62
2022-11-19T08:47:25.440Z,5.68
2022-11-19T08:49:52.513Z,5.73
2022-11-19T08:52:19.379Z,5.80
2022-11-19T08:54:46.254Z,5.85
2022-11-19T08:57:13.158Z,5.92
2022-11-19T08:59:40.022Z,5.99
2022-11-19T09:02:09.059Z,6.05
2022-11-19T09:04:35.981Z,6.11
2022-11-19T09:07:02.939Z,6.15
2022-11-19T09:09:29.861Z,6.18
2022-11-19T09:11:56.924Z,6.21
2022-11-19T09:14:23.793Z,6.23
2022-11-19T09:16:50.660Z,6.26
2022-11-19T09:19:17.555Z,6.26
2022-11-19T09:21:44.570Z,6.19
2022-11-19T09:24:11.491Z,6.26
2022-11-19T09:26:38.376Z,6.24
2022-11-19T09:29:05.274Z,6.22
2022-11-19T09:31:32.171Z,6.21
2022-11-19T09:33:59.058Z,6.18
2022-11-19T09:36:25.927Z,6.19
2022-11-19T09:38:57.736Z,6.14
2022-11-19T09:41:51.222Z,6.19
2022-11-19T09:44:44.680Z,6.20
2022-11-19T09:47:30.914Z,6.17
2022-11-19T09:50:23.011Z,6.17
2022-11-19T09:53:07.606Z,6.16
2022-11-19T09:55:42.381Z,6.20
2022-11-19T09:58:23.068Z,6.22
2022-11-19T10:00:50.010Z,6.23
2022-11-19T10:03:31.570Z,6.19
2022-11-19T10:06:15.046Z,6.25
2022-11-19T10:08:56.279Z,6.25
2022-11-19T10:11:51.559Z,6.28
2022-11-19T10:15:00.096Z,6.30
2022-11-19T10:17:50.273Z,6.33
2022-11-19T10:20:51.948Z,6.37
2022-11-19T10:23:48.740Z,6.39
2022-11-19T10:26:19.363Z,6.41
2022-11-19T10:28:56.706Z,6.49
2022-11-19T10:31:33.065Z,6.54
2022-11-19T10:34:10.984Z,6.53
2022-11-19T10:37:05.933Z,6.63
2022-11-19T10:39:44.353Z,6.67
2022-11-19T10:42:31.969Z,6.71
2022-11-19T10:45:19.831Z,6.76
2022-11-19T10:47:58.745Z,6.79
2022-11-19T10:50:26.585Z,6.83
2022-11-19T10:53:02.690Z,6.87
2022-11-19T10:55:39.762Z,6.90
2022-11-19T10:58:14.004Z,6.96
2022-11-19T11:00:42.033Z,7.01
2022-11-19T11:03:43.878Z,7.09
2022-11-19T11:06:12.107Z,7.12
2022-11-19T11:08:53.800Z,7.20
2022-11-19T11:11:50.583Z,7.23
2022-11-19T11:14:41.774Z,7.26
2022-11-19T11:17:25.642Z,7.24
2022-11-19T11:20:15.865Z,7.36
2022-11-19T11:22:44.205Z,7.34
2022-11-19T11:25:26.481Z,7.36
2022-11-19T11:28:16.129Z,7.44
2022-11-19T11:30:56.011Z,7.41
2022-11-19T11:33:29.664Z,7.50
2022-11-19T11:36:19.392Z,7.53
2022-11-19T11:38:52.602Z,7.52
2022-11-19T11:44:23.857Z,7.62
2022-11-19T11:46:56.615Z,7.66
2022-11-19T11:49:49.491Z,7.70
2022-11-19T11:52:21.121Z,7.76
2022-11-19T11:55:16.591Z,7.84
2022-11-19T11:57:56.960Z,7.88
2022-11-19T12:00:42.866Z,7.90
2022-11-19T12:03:18.693Z,7.93
2022-11-19T12:06:12.874Z,7.95
2022-11-19T12:09:08.229Z,7.96
2022-11-19T12:11:54.996Z,7.90
2022-11-19T12:14:36.522Z,7.98
2022-11-19T12:17:18.667Z,8.01
2022-11-19T12:19:53.966Z,8.04
2022-11-19T12:22:46.902Z,8.06
2022-11-19T12:25:36.784Z,8.09
2022-11-19T12:28:26.489Z,8.13
2022-11-19T12:31:10.734Z,8.13
2022-11-19T12:33:53.118Z,8.16
2022-11-19T12:36:57.889Z,8.20
2022-11-19T12:39:47.112Z,8.21
2022-11-19T12:42:38.762Z,8.24
2022-11-19T12:45:54.617Z,8.26
2022-11-19T12:48:53.217Z,8.26
2022-11-19T12:52:01.107Z,8.26
2022-11-19T12:55:04.433Z,8.26
2022-11-19T12:57:39.991Z,8.26
2022-11-19T13:00:19.429Z,8.25
2022-11-19T13:03:08.717Z,8.23
2022-11-19T13:05:55.607Z,8.23
2022-11-19T13:08:32.454Z,8.23
2022-11-19T13:11:13.025Z,8.24
2022-11-19T13:13:47.157Z,8.23
2022-11-19T13:16:20.774Z,8.22
2022-11-19T13:19:06.083Z,8.23
2022-11-19T13:21:55.003Z,8.25
2022-11-19T13:24:41.235Z,8.28
2022-11-19T13:27:17.681Z,8.30
2022-11-19T13:30:12.337Z,7.98
2022-11-19T13:33:12.528Z,8.36
2022-11-19T13:36:10.875Z,8.39
2022-11-19T13:38:45.017Z,8.42
2022-11-19T13:41:23.334Z,8.39
2022-11-19T13:44:09.092Z,8.40
2022-11-19T13:46:51.995Z,8.42
2022-11-19T13:49:42.505Z,8.41
2022-11-19T13:52:28.366Z,8.39
2022-11-19T13:54:57.963Z,8.40
2022-11-19T13:57:44.057Z,8.38
2022-11-19T14:00:26.997Z,8.33
2022-11-19T14:03:08.991Z,8.33
2022-11-19T14:06:03.733Z,8.30
2022-11-19T14:08:51.418Z,8.29
2022-11-19T14:12:00.407Z,8.27
2022-11-19T14:15:04.800Z,8.23
2022-11-19T14:18:04.008Z,8.21
2022-11-19T14:20:56.042Z,8.19
2022-11-19T14:24:02.561Z,8.15
2022-11-19T14:26:41.449Z,8.15
2022-11-19T14:29:26.374Z,8.13
2022-11-19T14:32:06.121Z,8.09
2022-11-19T14:34:41.043Z,8.08
2022-11-19T14:37:45.552Z,8.08
2022-11-19T14:40:21.190Z,8.10
2022-11-19T14:43:18.690Z,8.09
2022-11-19T14:46:04.407Z,8.06
2022-11-19T14:48:39.568Z,8.02
2022-11-19T14:51:11.084Z,8.04
2022-11-19T14:54:16.048Z,8.03
2022-11-19T14:56:47.808Z,8.03
2022-11-19T14:59:14.546Z,8.04
2022-11-19T15:02:18.849Z,7.97
2022-11-19T15:05:19.337Z,8.00
2022-11-19T15:08:18.239Z,7.96
2022-11-19T15:11:01.606Z,7.95
2022-11-19T15:13:34.168Z,7.95
2022-11-19T15:16:20.966Z,7.95
2022-11-19T15:19:41.341Z,7.89
2022-11-19T15:22:45.509Z,7.90
2022-11-19T15:25:19.694Z,7.88
2022-11-19T15:28:41.647Z,7.83
2022-11-19T15:31:26.253Z,7.74
2022-11-19T15:35:09.275Z,7.75
2022-11-19T15:37:57.127Z,7.71
2022-11-19T15:40:29.132Z,7.70
2022-11-19T15:43:14.023Z,7.67
2022-11-19T15:45:50.169Z,7.68
2022-11-19T15:48:25.446Z,7.63
2022-11-19T15:50:52.670Z,7.62
2022-11-19T15:53:23.761Z,7.61
2022-11-19T15:56:00.010Z,7.51
2022-11-19T15:58:42.816Z,7.58
2022-11-19T16:01:15.358Z,7.58
2022-11-19T16:03:42.471Z,7.59
2022-11-19T16:06:29.090Z,7.58
2022-11-19T16:09:05.168Z,7.60
2022-11-19T16:11:54.600Z,7.62
2022-11-19T16:14:47.198Z,7.60
2022-11-19T16:17:39.755Z,7.59
2022-11-19T16:20:12.517Z,7.56
2022-11-19T16:22:57.767Z,7.54
2022-11-19T16:25:51.441Z,7.54
2022-11-19T16:28:39.446Z,7.51
2022-11-19T16:31:07.201Z,7.51
2022-11-19T16:33:34.582Z,7.49
2022-11-19T16:36:19.445Z,7.46
2022-11-19T16:38:49.440Z,7.40
2022-11-19T16:41:38.382Z,7.42
2022-11-19T16:44:11.267Z,7.38
2022-11-19T16:46:38.552Z,7.28
2022-11-19T16:49:31.265Z,7.30
2022-11-19T16:51:58.358Z,7.22
2022-11-19T16:54:45.818Z,7.22
2022-11-19T16:57:24.206Z,7.10
2022-11-19T17:00:00.611Z,7.17
2022-11-19T17:02:39.673Z,7.17
2022-11-19T17:05:19.895Z,7.14
2022-11-19T17:07:52.739Z,7.12
2022-11-19T17:10:23.014Z,7.12
2022-11-19T17:13:22.772Z,7.11
2022-11-19T17:15:51.591Z,7.09
2022-11-19T17:18:33.237Z,7.09
2022-11-19T17:21:06.624Z,7.07
2022-11-19T17:23:37.123Z,7.07
2022-11-19T17:26:08.217Z,7.07
2022-11-19T17:28:46.569Z,7.09
2022-11-19T17:31:21.033Z,7.08
2022-11-19T17:33:58.176Z,7.10
2022-11-19T17:36:26.426Z,7.10
2022-11-19T17:38:53.833Z,7.03
2022-11-19T17:41:44.119Z,7.07
2022-11-19T17:44:34.754Z,7.08
2022-11-19T17:47:23.439Z,7.07
2022-11-19T17:49:51.722Z,6.96
2022-11-19T17:52:29.170Z,7.05
2022-11-19T17:55:02.276Z,7.06
2022-11-19T17:57:29.158Z,7.08
2022-11-19T17:59:56.182Z,7.09
2022-11-19T18:02:23.103Z,7.10
2022-11-19T18:04:50.098Z,7.12
2022-11-19T18:07:17.075Z,7.14
2022-11-19T18:09:44.844Z,7.17
2022-11-19T18:12:16.675Z,7.18
2022-11-19T18:14:45.861Z,7.18
2022-11-19T18:17:14.528Z,7.16
2022-11-19T18:19:41.617Z,7.20
2022-11-19T18:22:18.145Z,7.19
2022-11-19T18:24:47.834Z,7.22
2022-11-19T18:27:15.605Z,7.21
2022-11-19T18:29:42.491Z,7.20
2022-11-19T18:32:15.900Z,7.23
2022-11-19T18:34:44.335Z,7.23
2022-11-19T18:37:11.937Z,7.22
2022-11-19T18:39:38.843Z,7.20
2022-11-19T18:42:05.764Z,7.19
2022-11-19T18:44:35.265Z,7.16
2022-11-19T18:47:06.485Z,7.12
2022-11-19T18:49:34.492Z,7.10
2022-11-19T18:52:06.810Z,7.07
2022-11-19T18:54:33.995Z,7.04
2022-11-19T18:57:00.866Z,6.99
2022-11-19T18:59:28.700Z,6.97
2022-11-19T19:01:56.168Z,6.96
2022-11-19T19:04:23.703Z,6.95
2022-11-19T19:06:50.619Z,6.90
2022-11-19T19:09:21.510Z,6.87
2022-11-19T19:12:13.502Z,6.86
2022-11-19T19:14:42.121Z,6.82
2022-11-19T19:17:09.833Z,6.71
2022-11-19T19:19:36.806Z,6.77
2022-11-19T19:22:04.809Z,6.75
2022-11-19T19:24:32.477Z,6.74
2022-11-19T19:27:00.566Z,6.74
2022-11-19T19:29:27.685Z,6.72
2022-11-19T19:31:54.643Z,6.72
2022-11-19T19:34:21.563Z,6.72
2022-11-19T19:36:52.896Z,6.72
2022-11-19T19:39:20.602Z,6.70
2022-11-19T19:41:49.069Z,6.66
2022-11-19T19:44:16.052Z,6.68
2022-11-19T19:46:43.977Z,6.67
2022-11-19T19:49:10.862Z,6.66
2022-11-19T19:51:37.736Z,6.68
2022-11-19T19:54:04.721Z,6.68
2022-11-19T19:56:32.728Z,6.65
2022-11-19T19:59:01.243Z,6.67
2022-11-19T20:01:37.353Z,6.67
2022-11-19T20:04:08.146Z,6.68
2022-11-19T20:06:38.075Z,6.65
2022-11-19T20:09:08.825Z,6.68
2022-11-19T20:11:37.279Z,6.68
2022-11-19T20:14:04.943Z,6.67
2022-11-19T20:16:33.542Z,6.64
2022-11-19T20:19:01.358Z,6.60
2022-11-19T20:21:34.149Z,6.59
2022-11-19T20:24:01.258Z,6.56
2022-11-19T20:26:30.481Z,6.60
2022-11-19T20:29:00.516Z,6.60
2022-11-19T20:31:29.081Z,6.60
2022-11-19T20:34:04.610Z,6.59
2022-11-19T20:36:34.748Z,6.61
2022-11-19T20:39:02.285Z,6.62
2022-11-19T20:41:48.237Z,6.62
2022-11-19T20:44:25.611Z,6.65
2022-11-19T20:47:10.584Z,6.65
2022-11-19T20:49:39.384Z,6.66
2022-11-19T20:52:07.645Z,6.65
2022-11-19T20:54:34.672Z,6.63
2022-11-19T20:57:01.777Z,6.65
2022-11-19T20:59:29.959Z,6.62
2022-11-19T21:01:57.642Z,6.59
2022-11-19T21:04:27.225Z,6.56
2022-11-19T21:06:54.350Z,6.54
2022-11-19T21:09:22.132Z,6.52
2022-11-19T21:11:49.245Z,6.50
2022-11-19T21:14:16.130Z,6.49
2022-11-19T21:16:42.993Z,6.47
2022-11-19T21:19:10.976Z,6.47
2022-11-19T21:21:38.303Z,6.47
2022-11-19T21:24:05.860Z,6.43
2022-11-19T21:26:33.072Z,6.49
2022-11-19T21:29:00.738Z,6.48
2022-11-19T21:31:46.285Z,6.43
2022-11-19T21:34:18.875Z,6.47
2022-11-19T21:36:47.241Z,6.47
2022-11-19T21:39:16.534Z,6.47
2022-11-19T21:41:44.242Z,6.48
2022-11-19T21:44:13.257Z,6.50
2022-11-19T21:46:43.581Z,6.48
2022-11-19T21:49:10.454Z,6.47
2022-11-19T21:51:37.321Z,6.47
2022-11-19T21:54:04.263Z,6.47
2022-11-19T21:56:36.920Z,6.46
2022-11-19T21:59:05.215Z,6.44
2022-11-19T22:01:32.097Z,6.47
2022-11-19T22:03:58.991Z,6.48
2022-11-19T22:06:26.320Z,6.49
2022-11-19T22:08:53.200Z,6.46
2022-11-19T22:11:29.244Z,6.51
2022-11-19T22:14:05.247Z,6.51
2022-11-19T22:16:36.059Z,6.52
2022-11-19T22:19:03.695Z,6.52
2022-11-19T22:21:30.577Z,6.54
2022-11-19T22:23:58.040Z,6.54
2022-11-19T22:26:25.270Z,6.55
2022-11-19T22:28:52.170Z,6.55
2022-11-19T22:31:19.136Z,6.53
2022-11-19T22:33:49.605Z,6.54
2022-11-19T22:36:16.461Z,6.53
2022-11-19T22:38:43.351Z,6.51
2022-11-19T22:41:13.699Z,6.51
2022-11-19T22:43:41.700Z,6.50
2022-11-19T22:46:11.355Z,6.49
2022-11-19T22:48:39.000Z,6.47
2022-11-19T22:51:13.635Z,6.48
2022-11-19T22:53:40.650Z,6.46
2022-11-19T22:56:10.964Z,6.44
2022-11-19T22:58:38.804Z,6.43
2022-11-19T23:01:07.984Z,6.42
2022-11-19T23:03:34.923Z,6.42
2022-11-19T23:06:01.811Z,6.43
2022-11-19T23:08:28.670Z,6.44
2022-11-19T23:11:04.765Z,6.45
2022-11-19T23:13:34.451Z,6.46
2022-11-19T23:16:07.144Z,6.46
2022-11-19T23:18:40.674Z,6.45
2022-11-19T23:21:24.377Z,6.49
2022-11-19T23:23:52.563Z,6.52
2022-11-19T23:26:25.439Z,6.55
2022-11-19T23:28:53.279Z,6.60
2022-11-19T23:31:37.240Z,6.60
2022-11-19T23:34:04.899Z,6.62
2022-11-19T23:36:38.549Z,6.56
2022-11-19T23:39:08.117Z,6.64
2022-11-19T23:41:34.993Z,6.65
2022-11-19T23:44:02.271Z,6.63
2022-11-19T23:46:32.623Z,6.70
2022-11-19T23:49:00.253Z,6.66
2022-11-19T23:51:33.148Z,6.71
2022-11-19T23:54:00.169Z,6.73
2022-11-19T23:56:29.821Z,6.72
2022-11-19T23:58:56.898Z,6.74
